sensor_id;sensor_type;location;lat;lon;timestamp;temperature;humidity
12477;DHT22;6303;51.504;6.300;2023-07-28T00:01:04;25.40;73.60
12477;DHT22;6303;51.504;6.300;2023-07-28T00:03:32;25.40;73.50
12477;DHT22;6303;51.504;6.300;2023-07-28T00:05:59;25.40;73.50
12477;DHT22;6303;51.504;6.300;2023-07-28T00:08:26;25.40;73.50
12477;DHT22;6303;51.504;6.300;2023-07-28T00:10:54;25.40;73.40
12477;DHT22;6303;51.504;6.300;2023-07-28T00:13:21;25.40;73.40
12477;DHT22;6303;51.504;6.300;2023-07-28T00:15:48;25.40;73.40
12477;DHT22;6303;51.504;6.300;2023-07-28T00:18:15;25.40;73.30
12477;DHT22;6303;51.504;6.300;2023-07-28T00:20:44;25.40;73.30
12477;DHT22;6303;51.504;6.300;2023-07-28T00:23:11;25.40;73.40
12477;DHT22;6303;51.504;6.300;2023-07-28T00:25:38;25.40;73.40
12477;DHT22;6303;51.504;6.300;2023-07-28T00:28:06;25.40;73.20
12477;DHT22;6303;51.504;6.300;2023-07-28T00:30:33;25.40;73.30
12477;DHT22;6303;51.504;6.300;2023-07-28T00:33:00;25.40;73.20
12477;DHT22;6303;51.504;6.300;2023-07-28T00:35:27;25.40;73.30
12477;DHT22;6303;51.504;6.300;2023-07-28T00:37:54;25.40;73.30
12477;DHT22;6303;51.504;6.300;2023-07-28T00:40:22;25.40;73.30
12477;DHT22;6303;51.504;6.300;2023-07-28T00:42:49;25.40;73.20
12477;DHT22;6303;51.504;6.300;2023-07-28T00:45:18;25.40;73.30
12477;DHT22;6303;51.504;6.300;2023-07-28T00:47:46;25.40;73.10
12477;DHT22;6303;51.504;6.300;2023-07-28T00:50:13;25.40;73.20
12477;DHT22;6303;51.504;6.300;2023-07-28T00:52:40;25.40;73.20
12477;DHT22;6303;51.504;6.300;2023-07-28T00:55:08;25.40;73.10
12477;DHT22;6303;51.504;6.300;2023-07-28T00:57:36;25.40;73.10
12477;DHT22;6303;51.504;6.300;2023-07-28T01:00:06;25.40;73.20
12477;DHT22;6303;51.504;6.300;2023-07-28T01:02:34;25.40;73.20
12477;DHT22;6303;51.504;6.300;2023-07-28T01:05:02;25.40;73.20
12477;DHT22;6303;51.504;6.300;2023-07-28T01:07:35;25.40;73.90
12477;DHT22;6303;51.504;6.300;2023-07-28T01:10:07;25.40;73.20
12477;DHT22;6303;51.504;6.300;2023-07-28T01:12:35;25.40;73.10
12477;DHT22;6303;51.504;6.300;2023-07-28T01:15:02;25.40;73.10
12477;DHT22;6303;51.504;6.300;2023-07-28T01:17:29;25.40;73.10
12477;DHT22;6303;51.504;6.300;2023-07-28T01:19:58;25.40;73.10
12477;DHT22;6303;51.504;6.300;2023-07-28T01:22:46;25.40;73.10
12477;DHT22;6303;51.504;6.300;2023-07-28T01:25:22;25.40;73.10
12477;DHT22;6303;51.504;6.300;2023-07-28T01:27:56;25.40;73.10
12477;DHT22;6303;51.504;6.300;2023-07-28T01:30:24;25.40;73.10
12477;DHT22;6303;51.504;6.300;2023-07-28T01:32:54;25.40;73.00
12477;DHT22;6303;51.504;6.300;2023-07-28T01:35:21;25.40;73.00
12477;DHT22;6303;51.504;6.300;2023-07-28T01:37:48;25.40;73.00
12477;DHT22;6303;51.504;6.300;2023-07-28T01:40:17;25.40;73.00
12477;DHT22;6303;51.504;6.300;2023-07-28T01:42:44;25.40;73.00
12477;DHT22;6303;51.504;6.300;2023-07-28T01:45:12;25.40;73.10
12477;DHT22;6303;51.504;6.300;2023-07-28T01:47:40;25.40;73.00
12477;DHT22;6303;51.504;6.300;2023-07-28T01:50:07;25.40;73.00
12477;DHT22;6303;51.504;6.300;2023-07-28T01:52:34;25.40;72.90
12477;DHT22;6303;51.504;6.300;2023-07-28T01:55:01;25.40;72.90
12477;DHT22;6303;51.504;6.300;2023-07-28T01:57:33;25.40;72.90
12477;DHT22;6303;51.504;6.300;2023-07-28T02:00:00;25.40;72.80
12477;DHT22;6303;51.504;6.300;2023-07-28T02:02:40;25.70;73.10
12477;DHT22;6303;51.504;6.300;2023-07-28T02:05:08;25.40;72.90
12477;DHT22;6303;51.504;6.300;2023-07-28T02:07:35;25.40;72.80
12477;DHT22;6303;51.504;6.300;2023-07-28T02:10:02;25.40;72.80
12477;DHT22;6303;51.504;6.300;2023-07-28T02:12:29;25.40;72.70
12477;DHT22;6303;51.504;6.300;2023-07-28T02:14:56;25.40;72.70
12477;DHT22;6303;51.504;6.300;2023-07-28T02:17:23;25.40;72.70
12477;DHT22;6303;51.504;6.300;2023-07-28T02:19:51;25.40;72.60
12477;DHT22;6303;51.504;6.300;2023-07-28T02:22:18;25.40;72.50
12477;DHT22;6303;51.504;6.300;2023-07-28T02:24:45;25.40;72.50
12477;DHT22;6303;51.504;6.300;2023-07-28T02:27:12;25.40;72.50
12477;DHT22;6303;51.504;6.300;2023-07-28T02:29:39;25.40;72.50
12477;DHT22;6303;51.504;6.300;2023-07-28T02:32:08;25.40;72.50
12477;DHT22;6303;51.504;6.300;2023-07-28T02:34:35;25.40;72.40
12477;DHT22;6303;51.504;6.300;2023-07-28T02:37:04;25.40;72.40
12477;DHT22;6303;51.504;6.300;2023-07-28T02:39:31;25.40;72.40
12477;DHT22;6303;51.504;6.300;2023-07-28T02:41:58;25.40;73.10
12477;DHT22;6303;51.504;6.300;2023-07-28T02:44:25;25.40;72.30
12477;DHT22;6303;51.504;6.300;2023-07-28T02:46:52;25.40;72.30
12477;DHT22;6303;51.504;6.300;2023-07-28T02:49:19;25.40;72.30
12477;DHT22;6303;51.504;6.300;2023-07-28T02:51:46;25.40;72.20
12477;DHT22;6303;51.504;6.300;2023-07-28T02:54:15;25.40;72.20
12477;DHT22;6303;51.504;6.300;2023-07-28T02:56:42;25.40;72.20
12477;DHT22;6303;51.504;6.300;2023-07-28T02:59:11;25.40;72.20
12477;DHT22;6303;51.504;6.300;2023-07-28T03:01:38;25.40;72.20
12477;DHT22;6303;51.504;6.300;2023-07-28T03:04:06;25.40;72.10
12477;DHT22;6303;51.504;6.300;2023-07-28T03:06:53;25.40;72.10
12477;DHT22;6303;51.504;6.300;2023-07-28T03:09:21;25.40;72.00
12477;DHT22;6303;51.504;6.300;2023-07-28T03:11:59;25.40;72.10
12477;DHT22;6303;51.504;6.300;2023-07-28T03:14:26;25.40;72.10
12477;DHT22;6303;51.504;6.300;2023-07-28T03:16:54;25.40;72.00
12477;DHT22;6303;51.504;6.300;2023-07-28T03:19:21;25.40;72.00
12477;DHT22;6303;51.504;6.300;2023-07-28T03:21:49;25.40;71.90
12477;DHT22;6303;51.504;6.300;2023-07-28T03:24:16;25.40;71.90
12477;DHT22;6303;51.504;6.300;2023-07-28T03:26:44;25.40;71.90
12477;DHT22;6303;51.504;6.300;2023-07-28T03:29:12;25.40;71.80
12477;DHT22;6303;51.504;6.300;2023-07-28T03:31:39;25.40;71.80
12477;DHT22;6303;51.504;6.300;2023-07-28T03:34:07;25.40;71.80
12477;DHT22;6303;51.504;6.300;2023-07-28T03:36:34;25.40;71.80
12477;DHT22;6303;51.504;6.300;2023-07-28T03:39:01;25.40;71.70
12477;DHT22;6303;51.504;6.300;2023-07-28T03:41:29;25.40;71.70
12477;DHT22;6303;51.504;6.300;2023-07-28T03:43:57;25.40;71.70
12477;DHT22;6303;51.504;6.300;2023-07-28T03:46:24;25.40;71.70
12477;DHT22;6303;51.504;6.300;2023-07-28T03:48:52;25.40;71.60
12477;DHT22;6303;51.504;6.300;2023-07-28T03:51:19;25.40;71.60
12477;DHT22;6303;51.504;6.300;2023-07-28T03:53:46;25.40;71.50
12477;DHT22;6303;51.504;6.300;2023-07-28T03:56:13;25.40;71.50
12477;DHT22;6303;51.504;6.300;2023-07-28T03:58:40;25.70;71.70
12477;DHT22;6303;51.504;6.300;2023-07-28T04:01:09;25.40;71.40
12477;DHT22;6303;51.504;6.300;2023-07-28T04:03:36;24.80;71.00
12477;DHT22;6303;51.504;6.300;2023-07-28T04:06:06;25.40;71.50
12477;DHT22;6303;51.504;6.300;2023-07-28T04:08:33;25.40;71.50
12477;DHT22;6303;51.504;6.300;2023-07-28T04:11:00;25.40;71.50
12477;DHT22;6303;51.504;6.300;2023-07-28T04:13:27;25.40;71.50
12477;DHT22;6303;51.504;6.300;2023-07-28T04:15:54;25.40;71.60
12477;DHT22;6303;51.504;6.300;2023-07-28T04:18:23;25.40;71.90
12477;DHT22;6303;51.504;6.300;2023-07-28T04:20:50;25.40;72.00
12477;DHT22;6303;51.504;6.300;2023-07-28T04:23:17;25.40;72.40
12477;DHT22;6303;51.504;6.300;2023-07-28T04:25:45;25.40;72.70
12477;DHT22;6303;51.504;6.300;2023-07-28T04:28:12;25.40;72.70
12477;DHT22;6303;51.504;6.300;2023-07-28T04:30:39;25.40;72.90
12477;DHT22;6303;51.504;6.300;2023-07-28T04:33:09;25.40;73.30
12477;DHT22;6303;51.504;6.300;2023-07-28T04:35:39;25.40;74.00
12477;DHT22;6303;51.504;6.300;2023-07-28T04:38:29;25.40;74.40
12477;DHT22;6303;51.504;6.300;2023-07-28T04:40:58;25.40;74.60
12477;DHT22;6303;51.504;6.300;2023-07-28T04:43:44;25.40;74.60
12477;DHT22;6303;51.504;6.300;2023-07-28T04:46:11;25.40;74.20
12477;DHT22;6303;51.504;6.300;2023-07-28T04:48:39;25.40;74.10
12477;DHT22;6303;51.504;6.300;2023-07-28T04:51:27;25.40;74.30
12477;DHT22;6303;51.504;6.300;2023-07-28T04:54:13;25.40;74.40
12477;DHT22;6303;51.504;6.300;2023-07-28T04:56:40;25.40;75.30
12477;DHT22;6303;51.504;6.300;2023-07-28T04:59:07;25.40;76.30
12477;DHT22;6303;51.504;6.300;2023-07-28T05:01:34;25.40;77.50
12477;DHT22;6303;51.504;6.300;2023-07-28T05:04:01;25.40;80.50
12477;DHT22;6303;51.504;6.300;2023-07-28T05:06:31;25.50;80.60
12477;DHT22;6303;51.504;6.300;2023-07-28T05:08:58;25.50;81.00
12477;DHT22;6303;51.504;6.300;2023-07-28T05:11:35;25.20;80.90
12477;DHT22;6303;51.504;6.300;2023-07-28T05:14:02;25.50;81.20
12477;DHT22;6303;51.504;6.300;2023-07-28T05:16:31;25.50;81.40
12477;DHT22;6303;51.504;6.300;2023-07-28T05:19:12;25.50;81.30
12477;DHT22;6303;51.504;6.300;2023-07-28T05:21:59;25.50;81.20
12477;DHT22;6303;51.504;6.300;2023-07-28T05:24:38;25.50;81.20
12477;DHT22;6303;51.504;6.300;2023-07-28T05:27:06;25.50;81.00
12477;DHT22;6303;51.504;6.300;2023-07-28T05:29:33;25.50;81.00
12477;DHT22;6303;51.504;6.300;2023-07-28T05:32:05;25.50;81.00
12477;DHT22;6303;51.504;6.300;2023-07-28T05:34:52;25.50;81.20
12477;DHT22;6303;51.504;6.300;2023-07-28T05:37:21;25.50;81.30
12477;DHT22;6303;51.504;6.300;2023-07-28T05:39:49;25.50;81.60
12477;DHT22;6303;51.504;6.300;2023-07-28T05:42:17;25.50;81.60
12477;DHT22;6303;51.504;6.300;2023-07-28T05:44:46;25.50;81.90
12477;DHT22;6303;51.504;6.300;2023-07-28T05:47:13;25.50;81.70
12477;DHT22;6303;51.504;6.300;2023-07-28T05:49:40;25.50;81.90
12477;DHT22;6303;51.504;6.300;2023-07-28T05:52:07;25.50;82.10
12477;DHT22;6303;51.504;6.300;2023-07-28T05:54:36;25.50;82.10
12477;DHT22;6303;51.504;6.300;2023-07-28T05:57:03;25.50;82.10
12477;DHT22;6303;51.504;6.300;2023-07-28T05:59:31;25.50;82.20
12477;DHT22;6303;51.504;6.300;2023-07-28T06:01:58;25.50;82.20
12477;DHT22;6303;51.504;6.300;2023-07-28T06:04:43;25.50;82.40
12477;DHT22;6303;51.504;6.300;2023-07-28T06:07:10;25.50;82.40
12477;DHT22;6303;51.504;6.300;2023-07-28T06:09:39;25.50;82.50
12477;DHT22;6303;51.504;6.300;2023-07-28T06:12:07;25.90;83.00
12477;DHT22;6303;51.504;6.300;2023-07-28T06:14:34;25.50;82.70
12477;DHT22;6303;51.504;6.300;2023-07-28T06:17:04;25.60;82.80
12477;DHT22;6303;51.504;6.300;2023-07-28T06:19:33;25.50;83.10
12477;DHT22;6303;51.504;6.300;2023-07-28T06:22:00;25.60;83.20
12477;DHT22;6303;51.504;6.300;2023-07-28T06:24:30;25.50;83.30
12477;DHT22;6303;51.504;6.300;2023-07-28T06:27:00;25.50;83.10
12477;DHT22;6303;51.504;6.300;2023-07-28T06:29:33;25.50;83.00
12477;DHT22;6303;51.504;6.300;2023-07-28T06:32:00;25.50;83.40
12477;DHT22;6303;51.504;6.300;2023-07-28T06:34:28;25.50;83.50
12477;DHT22;6303;51.504;6.300;2023-07-28T06:36:55;25.50;83.50
12477;DHT22;6303;51.504;6.300;2023-07-28T06:39:22;25.50;83.60
12477;DHT22;6303;51.504;6.300;2023-07-28T06:41:50;25.50;83.60
12477;DHT22;6303;51.504;6.300;2023-07-28T06:44:19;25.50;83.50
12477;DHT22;6303;51.504;6.300;2023-07-28T06:46:46;25.60;83.70
12477;DHT22;6303;51.504;6.300;2023-07-28T06:49:14;25.50;83.70
12477;DHT22;6303;51.504;6.300;2023-07-28T06:51:41;26.20;84.20
12477;DHT22;6303;51.504;6.300;2023-07-28T06:54:10;25.60;83.60
12477;DHT22;6303;51.504;6.300;2023-07-28T06:56:39;25.60;83.60
12477;DHT22;6303;51.504;6.300;2023-07-28T06:59:06;25.60;83.70
12477;DHT22;6303;51.504;6.300;2023-07-28T07:01:34;25.60;83.80
12477;DHT22;6303;51.504;6.300;2023-07-28T07:04:01;25.50;83.90
12477;DHT22;6303;51.504;6.300;2023-07-28T07:06:30;25.60;84.00
12477;DHT22;6303;51.504;6.300;2023-07-28T07:08:57;25.60;84.00
12477;DHT22;6303;51.504;6.300;2023-07-28T07:11:24;25.60;84.10
12477;DHT22;6303;51.504;6.300;2023-07-28T07:13:51;25.60;84.90
12477;DHT22;6303;51.504;6.300;2023-07-28T07:16:18;24.80;83.50
12477;DHT22;6303;51.504;6.300;2023-07-28T07:18:47;25.60;84.30
12477;DHT22;6303;51.504;6.300;2023-07-28T07:21:14;25.60;84.60
12477;DHT22;6303;51.504;6.300;2023-07-28T07:23:41;25.60;84.70
12477;DHT22;6303;51.504;6.300;2023-07-28T07:26:24;25.00;84.10
12477;DHT22;6303;51.504;6.300;2023-07-28T07:28:51;25.60;84.80
12477;DHT22;6303;51.504;6.300;2023-07-28T07:31:18;25.60;85.00
12477;DHT22;6303;51.504;6.300;2023-07-28T07:33:47;25.60;85.20
12477;DHT22;6303;51.504;6.300;2023-07-28T07:36:14;25.60;85.40
12477;DHT22;6303;51.504;6.300;2023-07-28T07:38:42;25.70;85.50
12477;DHT22;6303;51.504;6.300;2023-07-28T07:41:11;25.70;85.70
12477;DHT22;6303;51.504;6.300;2023-07-28T07:43:41;25.70;85.80
12477;DHT22;6303;51.504;6.300;2023-07-28T07:46:08;25.60;85.90
12477;DHT22;6303;51.504;6.300;2023-07-28T07:48:35;25.60;85.90
12477;DHT22;6303;51.504;6.300;2023-07-28T07:51:04;25.70;86.20
12477;DHT22;6303;51.504;6.300;2023-07-28T07:53:31;25.70;86.30
12477;DHT22;6303;51.504;6.300;2023-07-28T07:55:58;25.70;86.40
12477;DHT22;6303;51.504;6.300;2023-07-28T07:58:25;25.70;86.50
12477;DHT22;6303;51.504;6.300;2023-07-28T08:00:52;25.70;86.70
12477;DHT22;6303;51.504;6.300;2023-07-28T08:03:19;25.10;86.40
12477;DHT22;6303;51.504;6.300;2023-07-28T08:05:46;25.70;86.90
12477;DHT22;6303;51.504;6.300;2023-07-28T08:08:15;25.70;87.20
12477;DHT22;6303;51.504;6.300;2023-07-28T08:10:42;25.70;87.60
12477;DHT22;6303;51.504;6.300;2023-07-28T08:13:10;25.70;87.60
12477;DHT22;6303;51.504;6.300;2023-07-28T08:15:37;25.70;87.80
12477;DHT22;6303;51.504;6.300;2023-07-28T08:18:04;25.70;87.90
12477;DHT22;6303;51.504;6.300;2023-07-28T08:20:31;25.70;88.00
12477;DHT22;6303;51.504;6.300;2023-07-28T08:22:58;25.70;88.10
12477;DHT22;6303;51.504;6.300;2023-07-28T08:25:26;25.70;88.20
12477;DHT22;6303;51.504;6.300;2023-07-28T08:27:53;25.70;88.20
12477;DHT22;6303;51.504;6.300;2023-07-28T08:30:20;24.70;87.70
12477;DHT22;6303;51.504;6.300;2023-07-28T08:32:47;25.70;88.50
12477;DHT22;6303;51.504;6.300;2023-07-28T08:35:15;25.70;88.50
12477;DHT22;6303;51.504;6.300;2023-07-28T08:37:42;25.70;88.50
12477;DHT22;6303;51.504;6.300;2023-07-28T08:40:10;25.70;88.20
12477;DHT22;6303;51.504;6.300;2023-07-28T08:42:40;25.70;88.20
12477;DHT22;6303;51.504;6.300;2023-07-28T08:45:08;25.70;88.10
12477;DHT22;6303;51.504;6.300;2023-07-28T08:47:36;25.70;88.20
12477;DHT22;6303;51.504;6.300;2023-07-28T08:50:03;25.70;88.30
12477;DHT22;6303;51.504;6.300;2023-07-28T08:52:31;25.70;88.30
12477;DHT22;6303;51.504;6.300;2023-07-28T08:54:59;25.70;88.50
12477;DHT22;6303;51.504;6.300;2023-07-28T08:57:26;25.70;88.50
12477;DHT22;6303;51.504;6.300;2023-07-28T08:59:55;25.70;88.50
12477;DHT22;6303;51.504;6.300;2023-07-28T09:02:22;25.70;88.70
12477;DHT22;6303;51.504;6.300;2023-07-28T09:04:49;25.70;88.80
12477;DHT22;6303;51.504;6.300;2023-07-28T09:07:16;25.70;89.00
12477;DHT22;6303;51.504;6.300;2023-07-28T09:09:43;25.80;89.00
12477;DHT22;6303;51.504;6.300;2023-07-28T09:12:12;25.80;89.00
12477;DHT22;6303;51.504;6.300;2023-07-28T09:14:39;25.80;89.00
12477;DHT22;6303;51.504;6.300;2023-07-28T09:17:08;25.80;89.00
12477;DHT22;6303;51.504;6.300;2023-07-28T09:19:50;25.80;88.90
12477;DHT22;6303;51.504;6.300;2023-07-28T09:22:18;25.80;88.90
12477;DHT22;6303;51.504;6.300;2023-07-28T09:24:45;25.80;89.00
12477;DHT22;6303;51.504;6.300;2023-07-28T09:27:20;25.80;89.10
12477;DHT22;6303;51.504;6.300;2023-07-28T09:29:49;25.90;89.40
12477;DHT22;6303;51.504;6.300;2023-07-28T09:32:26;25.80;89.50
12477;DHT22;6303;51.504;6.300;2023-07-28T09:35:06;25.80;89.30
12477;DHT22;6303;51.504;6.300;2023-07-28T09:37:37;25.80;88.90
12477;DHT22;6303;51.504;6.300;2023-07-28T09:40:08;25.80;88.80
12477;DHT22;6303;51.504;6.300;2023-07-28T09:42:38;25.80;88.80
12477;DHT22;6303;51.504;6.300;2023-07-28T09:45:06;25.80;88.90
12477;DHT22;6303;51.504;6.300;2023-07-28T09:47:35;25.80;88.90
12477;DHT22;6303;51.504;6.300;2023-07-28T09:50:04;25.80;88.80
12477;DHT22;6303;51.504;6.300;2023-07-28T09:52:36;25.80;88.60
12477;DHT22;6303;51.504;6.300;2023-07-28T09:55:06;25.80;88.60
12477;DHT22;6303;51.504;6.300;2023-07-28T09:57:38;25.80;88.50
12477;DHT22;6303;51.504;6.300;2023-07-28T10:00:07;25.80;88.50
12477;DHT22;6303;51.504;6.300;2023-07-28T10:02:39;25.80;88.60
12477;DHT22;6303;51.504;6.300;2023-07-28T10:05:07;25.80;88.60
12477;DHT22;6303;51.504;6.300;2023-07-28T10:07:37;25.80;88.50
12477;DHT22;6303;51.504;6.300;2023-07-28T10:10:06;25.80;88.40
12477;DHT22;6303;51.504;6.300;2023-07-28T10:12:40;25.80;88.60
12477;DHT22;6303;51.504;6.300;2023-07-28T10:15:13;26.30;89.90
12477;DHT22;6303;51.504;6.300;2023-07-28T10:17:45;25.90;88.90
12477;DHT22;6303;51.504;6.300;2023-07-28T10:20:34;25.90;89.30
12477;DHT22;6303;51.504;6.300;2023-07-28T10:23:06;25.90;89.60
12477;DHT22;6303;51.504;6.300;2023-07-28T10:25:34;25.90;89.80
12477;DHT22;6303;51.504;6.300;2023-07-28T10:28:02;25.90;89.70
12477;DHT22;6303;51.504;6.300;2023-07-28T10:30:37;25.90;89.50
12477;DHT22;6303;51.504;6.300;2023-07-28T10:33:07;25.90;90.00
12477;DHT22;6303;51.504;6.300;2023-07-28T10:35:53;26.00;90.00
12477;DHT22;6303;51.504;6.300;2023-07-28T10:38:34;26.00;90.00
12477;DHT22;6303;51.504;6.300;2023-07-28T10:41:13;26.00;89.90
12477;DHT22;6303;51.504;6.300;2023-07-28T10:43:40;26.00;89.80
12477;DHT22;6303;51.504;6.300;2023-07-28T10:46:09;26.00;89.80
12477;DHT22;6303;51.504;6.300;2023-07-28T10:48:42;26.00;89.80
12477;DHT22;6303;51.504;6.300;2023-07-28T10:51:09;26.00;89.90
12477;DHT22;6303;51.504;6.300;2023-07-28T10:53:37;26.00;89.50
12477;DHT22;6303;51.504;6.300;2023-07-28T10:56:05;26.00;89.30
12477;DHT22;6303;51.504;6.300;2023-07-28T10:58:34;26.00;89.30
12477;DHT22;6303;51.504;6.300;2023-07-28T11:01:02;26.00;89.20
12477;DHT22;6303;51.504;6.300;2023-07-28T11:03:29;26.00;89.10
12477;DHT22;6303;51.504;6.300;2023-07-28T11:05:57;26.00;88.90
12477;DHT22;6303;51.504;6.300;2023-07-28T11:08:25;26.00;89.00
12477;DHT22;6303;51.504;6.300;2023-07-28T11:10:53;26.00;89.00
12477;DHT22;6303;51.504;6.300;2023-07-28T11:13:20;26.10;89.20
12477;DHT22;6303;51.504;6.300;2023-07-28T11:15:50;26.10;88.80
12477;DHT22;6303;51.504;6.300;2023-07-28T11:18:17;26.20;88.60
12477;DHT22;6303;51.504;6.300;2023-07-28T11:20:44;26.10;88.50
12477;DHT22;6303;51.504;6.300;2023-07-28T11:23:14;26.10;88.30
12477;DHT22;6303;51.504;6.300;2023-07-28T11:25:44;26.10;88.40
12477;DHT22;6303;51.504;6.300;2023-07-28T11:28:13;26.10;88.50
12477;DHT22;6303;51.504;6.300;2023-07-28T11:30:40;26.10;88.40
12477;DHT22;6303;51.504;6.300;2023-07-28T11:33:09;26.10;88.10
12477;DHT22;6303;51.504;6.300;2023-07-28T11:35:38;26.10;87.90
12477;DHT22;6303;51.504;6.300;2023-07-28T11:38:06;26.10;87.60
12477;DHT22;6303;51.504;6.300;2023-07-28T11:40:36;26.10;87.10
12477;DHT22;6303;51.504;6.300;2023-07-28T11:43:04;26.10;87.50
12477;DHT22;6303;51.504;6.300;2023-07-28T11:45:31;26.10;87.30
12477;DHT22;6303;51.504;6.300;2023-07-28T11:48:00;26.20;86.50
12477;DHT22;6303;51.504;6.300;2023-07-28T11:50:29;26.20;86.40
12477;DHT22;6303;51.504;6.300;2023-07-28T11:52:57;26.20;86.20
12477;DHT22;6303;51.504;6.300;2023-07-28T11:55:24;26.20;86.60
12477;DHT22;6303;51.504;6.300;2023-07-28T11:57:53;26.20;86.00
12477;DHT22;6303;51.504;6.300;2023-07-28T12:00:28;26.30;85.90
12477;DHT22;6303;51.504;6.300;2023-07-28T12:03:04;26.30;85.70
12477;DHT22;6303;51.504;6.300;2023-07-28T12:05:31;26.30;85.70
12477;DHT22;6303;51.504;6.300;2023-07-28T12:07:59;26.30;86.30
12477;DHT22;6303;51.504;6.300;2023-07-28T12:10:26;26.30;85.80
12477;DHT22;6303;51.504;6.300;2023-07-28T12:12:54;26.30;85.50
12477;DHT22;6303;51.504;6.300;2023-07-28T12:15:23;26.30;85.30
12477;DHT22;6303;51.504;6.300;2023-07-28T12:18:09;26.30;85.50
12477;DHT22;6303;51.504;6.300;2023-07-28T12:20:38;26.30;85.50
12477;DHT22;6303;51.504;6.300;2023-07-28T12:23:06;26.30;85.30
12477;DHT22;6303;51.504;6.300;2023-07-28T12:25:35;26.30;85.30
12477;DHT22;6303;51.504;6.300;2023-07-28T12:28:04;26.40;85.00
12477;DHT22;6303;51.504;6.300;2023-07-28T12:30:32;26.40;86.00
12477;DHT22;6303;51.504;6.300;2023-07-28T12:32:59;26.40;84.70
12477;DHT22;6303;51.504;6.300;2023-07-28T12:35:26;26.40;85.30
12477;DHT22;6303;51.504;6.300;2023-07-28T12:37:57;26.40;85.10
12477;DHT22;6303;51.504;6.300;2023-07-28T12:40:26;26.40;85.00
12477;DHT22;6303;51.504;6.300;2023-07-28T12:42:54;26.40;85.10
12477;DHT22;6303;51.504;6.300;2023-07-28T12:45:23;26.40;85.10
12477;DHT22;6303;51.504;6.300;2023-07-28T12:47:51;26.50;85.20
12477;DHT22;6303;51.504;6.300;2023-07-28T12:50:20;26.50;84.30
12477;DHT22;6303;51.504;6.300;2023-07-28T12:52:47;26.50;84.60
12477;DHT22;6303;51.504;6.300;2023-07-28T12:55:15;26.50;84.10
12477;DHT22;6303;51.504;6.300;2023-07-28T12:57:42;26.50;83.70
12477;DHT22;6303;51.504;6.300;2023-07-28T13:00:10;26.50;83.50
12477;DHT22;6303;51.504;6.300;2023-07-28T13:02:41;26.50;83.40
12477;DHT22;6303;51.504;6.300;2023-07-28T13:05:09;26.50;83.10
12477;DHT22;6303;51.504;6.300;2023-07-28T13:07:37;26.50;82.50
12477;DHT22;6303;51.504;6.300;2023-07-28T13:10:05;26.50;82.20
12477;DHT22;6303;51.504;6.300;2023-07-28T13:12:33;26.50;82.10
12477;DHT22;6303;51.504;6.300;2023-07-28T13:15:00;26.60;82.10
12477;DHT22;6303;51.504;6.300;2023-07-28T13:17:27;26.60;82.00
12477;DHT22;6303;51.504;6.300;2023-07-28T13:19:56;26.60;81.70
12477;DHT22;6303;51.504;6.300;2023-07-28T13:22:23;26.60;81.80
12477;DHT22;6303;51.504;6.300;2023-07-28T13:24:52;26.60;81.40
12477;DHT22;6303;51.504;6.300;2023-07-28T13:27:19;26.60;81.10
12477;DHT22;6303;51.504;6.300;2023-07-28T13:29:46;26.60;81.20
12477;DHT22;6303;51.504;6.300;2023-07-28T13:32:17;26.70;81.40
12477;DHT22;6303;51.504;6.300;2023-07-28T13:34:44;26.70;80.90
12477;DHT22;6303;51.504;6.300;2023-07-28T13:37:13;26.70;81.20
12477;DHT22;6303;51.504;6.300;2023-07-28T13:39:42;26.70;81.40
12477;DHT22;6303;51.504;6.300;2023-07-28T13:42:09;26.70;80.90
12477;DHT22;6303;51.504;6.300;2023-07-28T13:44:37;26.70;80.60
12477;DHT22;6303;51.504;6.300;2023-07-28T13:47:04;26.70;80.90
12477;DHT22;6303;51.504;6.300;2023-07-28T13:49:33;26.70;80.60
12477;DHT22;6303;51.504;6.300;2023-07-28T13:52:01;26.70;80.40
12477;DHT22;6303;51.504;6.300;2023-07-28T13:54:29;26.70;80.30
12477;DHT22;6303;51.504;6.300;2023-07-28T13:56:57;26.70;80.20
12477;DHT22;6303;51.504;6.300;2023-07-28T13:59:24;26.70;80.90
12477;DHT22;6303;51.504;6.300;2023-07-28T14:01:51;26.80;80.90
12477;DHT22;6303;51.504;6.300;2023-07-28T14:04:18;26.70;81.30
12477;DHT22;6303;51.504;6.300;2023-07-28T14:06:45;26.70;81.30
12477;DHT22;6303;51.504;6.300;2023-07-28T14:09:12;26.70;81.10
12477;DHT22;6303;51.504;6.300;2023-07-28T14:11:41;26.70;81.00
12477;DHT22;6303;51.504;6.300;2023-07-28T14:14:08;26.70;80.80
12477;DHT22;6303;51.504;6.300;2023-07-28T14:16:35;26.70;80.90
12477;DHT22;6303;51.504;6.300;2023-07-28T14:19:02;26.70;80.80
12477;DHT22;6303;51.504;6.300;2023-07-28T14:21:29;26.70;80.90
12477;DHT22;6303;51.504;6.300;2023-07-28T14:23:56;26.70;81.40
12477;DHT22;6303;51.504;6.300;2023-07-28T14:26:23;26.70;81.00
12477;DHT22;6303;51.504;6.300;2023-07-28T14:28:51;26.80;81.80
12477;DHT22;6303;51.504;6.300;2023-07-28T14:31:18;26.80;81.50
12477;DHT22;6303;51.504;6.300;2023-07-28T14:33:45;26.80;81.00
12477;DHT22;6303;51.504;6.300;2023-07-28T14:36:12;26.80;80.90
12477;DHT22;6303;51.504;6.300;2023-07-28T14:38:39;26.90;80.80
12477;DHT22;6303;51.504;6.300;2023-07-28T14:41:06;26.90;80.70
12477;DHT22;6303;51.504;6.300;2023-07-28T14:43:33;26.90;80.30
12477;DHT22;6303;51.504;6.300;2023-07-28T14:46:02;26.90;80.40
12477;DHT22;6303;51.504;6.300;2023-07-28T14:48:29;26.90;80.70
12477;DHT22;6303;51.504;6.300;2023-07-28T14:50:56;26.90;81.50
12477;DHT22;6303;51.504;6.300;2023-07-28T14:53:31;26.90;81.70
12477;DHT22;6303;51.504;6.300;2023-07-28T14:55:58;26.90;82.30
12477;DHT22;6303;51.504;6.300;2023-07-28T14:58:26;26.90;81.90
12477;DHT22;6303;51.504;6.300;2023-07-28T15:00:53;26.90;82.20
12477;DHT22;6303;51.504;6.300;2023-07-28T15:03:22;26.90;83.50
12477;DHT22;6303;51.504;6.300;2023-07-28T15:05:49;26.80;84.00
12477;DHT22;6303;51.504;6.300;2023-07-28T15:08:16;26.80;84.10
12477;DHT22;6303;51.504;6.300;2023-07-28T15:10:43;26.80;84.10
12477;DHT22;6303;51.504;6.300;2023-07-28T15:13:10;26.80;84.60
12477;DHT22;6303;51.504;6.300;2023-07-28T15:15:37;26.80;84.80
12477;DHT22;6303;51.504;6.300;2023-07-28T15:18:04;26.80;85.20
12477;DHT22;6303;51.504;6.300;2023-07-28T15:20:33;26.80;85.30
12477;DHT22;6303;51.504;6.300;2023-07-28T15:23:00;26.80;85.60
12477;DHT22;6303;51.504;6.300;2023-07-28T15:25:27;26.80;85.70
12477;DHT22;6303;51.504;6.300;2023-07-28T15:27:54;26.80;86.00
12477;DHT22;6303;51.504;6.300;2023-07-28T15:30:21;26.80;86.50
12477;DHT22;6303;51.504;6.300;2023-07-28T15:32:49;26.80;86.80
12477;DHT22;6303;51.504;6.300;2023-07-28T15:35:16;26.80;87.10
12477;DHT22;6303;51.504;6.300;2023-07-28T15:37:45;26.80;87.20
12477;DHT22;6303;51.504;6.300;2023-07-28T15:40:12;26.80;87.00
12477;DHT22;6303;51.504;6.300;2023-07-28T15:42:39;26.80;86.70
12477;DHT22;6303;51.504;6.300;2023-07-28T15:45:07;26.80;85.00
12477;DHT22;6303;51.504;6.300;2023-07-28T15:47:34;26.80;85.20
12477;DHT22;6303;51.504;6.300;2023-07-28T15:50:02;26.80;85.30
12477;DHT22;6303;51.504;6.300;2023-07-28T15:52:30;26.80;85.10
12477;DHT22;6303;51.504;6.300;2023-07-28T15:54:58;26.80;84.80